OOCL California — VRWC8 — position and weather

sailwx.info

Track history (hours):
 
Tides and Currents Weather Stations Pressure Air Temp Water Temp Dewpoint Dewpoint Depression Visibility Wind Speed Wind Dir Waves Ship Positions

OOCL California

Last reported at 2018-Feb-21 16:36 UTC. Time now 2018-Feb-25 08:15 UTC.
Position N 23°08' E 117°18'.

Length 276 m; beam 40 m; draft 14 m.

Type: Ship. MMSI: 477704000.

Date/timePositionNaut miles runAvg speedWind from/ knotsBaromVisibWave heightAir tempDewpointWater temp
2018-Feb-21 16:36N 23°08' E 117°18'213.9
2018-Feb-21 16:28N 23°09' E 117°20'814.2
2018-Feb-21 15:55N 23°13' E 117°27'613.8
2018-Feb-21 15:30N 23°17' E 117°32'713.8
2018-Feb-21 15:00N 23°21' E 117°38'713.9
2018-Feb-21 14:31N 23°25' E 117°44'714.1
2018-Feb-21 14:00N 23°30' E 117°50'814.2
2018-Feb-21 13:28N 23°34' E 117°57'814.1
2018-Feb-21 12:55N 23°39' E 118°03'614.2
2018-Feb-21 12:29N 23°43' E 118°08'714.3
2018-Feb-21 11:59N 23°47' E 118°15'915.4
2018-Feb-21 11:23N 23°53' E 118°22'615.4
2018-Feb-21 10:59N 23°57' E 118°28'1115.8
2018-Feb-21 10:16N 24°04' E 118°38'615.7
2018-Feb-21 09:51N 24°08' E 118°43'915.8
2018-Feb-21 09:17N 24°14' E 118°50'  
2018-Feb-19 00:00N 29°42' E 122°30'84 3.0 330 / 181015.0 0.1 10.010.0
2018-Feb-17 20:20N 31°06' E 122°28'712.6
2018-Feb-17 19:46N 31°06' E 122°20'414.4
2018-Feb-17 19:30N 31°08' E 122°16'815.1
2018-Feb-17 19:00N 31°12' E 122°08'814.6
2018-Feb-17 18:28N 31°15' E 121°60'814.7
2018-Feb-17 17:56N 31°16' E 121°51'614.1
2018-Feb-17 17:30N 31°19' E 121°44'2 0.2
2018-Feb-17 03:21N 31°20' E 121°42'511.1
2018-Feb-17 02:57N 31°18' E 121°47'512.2
2018-Feb-17 02:30N 31°16' E 121°53'810.8
2018-Feb-17 01:47N 31°15' E 122°02'411.4
2018-Feb-17 01:27N 31°14' E 122°06'711.3
2018-Feb-17 00:48N 31°09' E 122°13'311.2
2018-Feb-17 00:30N 31°07' E 122°16'39 0.8
2018-Feb-14 20:31N 30°40' E 122°49'0 1.0
2018-Feb-14 20:28N 30°40' E 122°49'0 0.1
2018-Feb-14 19:46N 30°40' E 122°49'0 0.1
2018-Feb-14 19:28N 30°40' E 122°49'0 0.0
2018-Feb-14 18:58N 30°40' E 122°49'0 0.0
2018-Feb-14 18:28N 30°40' E 122°49'0 0.1
2018-Feb-14 17:58N 30°40' E 122°49'0 0.0
2018-Feb-14 16:52N 30°40' E 122°49'0 0.0
2018-Feb-14 16:28N 30°40' E 122°49'0 0.1
2018-Feb-14 15:58N 30°40' E 122°49'0 0.0
2018-Feb-14 00:52N 30°40' E 122°49'4 0.1
2018-Feb-12 00:00N 30°36' E 122°48'   290 / 181025.0 5.4 9.0 2.6
Track history (hours):
 
Tides and Currents Weather Stations Pressure Air Temp Water Temp Dewpoint Dewpoint Depression Visibility Wind Speed Wind Dir Waves Ship Positions

OOCL California

Last reported at 2018-Feb-21 16:36 UTC. Time now 2018-Feb-25 08:15 UTC.
Position N 23°08' E 117°18'.

Length 276 m; beam 40 m; draft 14 m.

Type: Ship. MMSI: 477704000.

Date/timePositionNaut miles runAvg speedWind from/ knotsBaromVisibWave heightAir tempDewpointWater temp
2018-Feb-21 16:36N 23°08' E 117°18'213.9
2018-Feb-21 16:28N 23°09' E 117°20'814.2
2018-Feb-21 15:55N 23°13' E 117°27'613.8
2018-Feb-21 15:30N 23°17' E 117°32'713.8
2018-Feb-21 15:00N 23°21' E 117°38'713.9
2018-Feb-21 14:31N 23°25' E 117°44'714.1
2018-Feb-21 14:00N 23°30' E 117°50'814.2
2018-Feb-21 13:28N 23°34' E 117°57'814.1
2018-Feb-21 12:55N 23°39' E 118°03'614.2
2018-Feb-21 12:29N 23°43' E 118°08'714.3
2018-Feb-21 11:59N 23°47' E 118°15'915.4
2018-Feb-21 11:23N 23°53' E 118°22'615.4
2018-Feb-21 10:59N 23°57' E 118°28'1115.8
2018-Feb-21 10:16N 24°04' E 118°38'615.7
2018-Feb-21 09:51N 24°08' E 118°43'915.8
2018-Feb-21 09:17N 24°14' E 118°50'  
2018-Feb-19 00:00N 29°42' E 122°30'84 3.0 330 / 181015.0 0.1 10.010.0
2018-Feb-17 20:20N 31°06' E 122°28'712.6
2018-Feb-17 19:46N 31°06' E 122°20'414.4
2018-Feb-17 19:30N 31°08' E 122°16'815.1
2018-Feb-17 19:00N 31°12' E 122°08'814.6
2018-Feb-17 18:28N 31°15' E 121°60'814.7
2018-Feb-17 17:56N 31°16' E 121°51'614.1
2018-Feb-17 17:30N 31°19' E 121°44'2 0.2
2018-Feb-17 03:21N 31°20' E 121°42'511.1
2018-Feb-17 02:57N 31°18' E 121°47'512.2
2018-Feb-17 02:30N 31°16' E 121°53'810.8
2018-Feb-17 01:47N 31°15' E 122°02'411.4
2018-Feb-17 01:27N 31°14' E 122°06'711.3
2018-Feb-17 00:48N 31°09' E 122°13'311.2
2018-Feb-17 00:30N 31°07' E 122°16'39 0.8
2018-Feb-14 20:31N 30°40' E 122°49'0 1.0
2018-Feb-14 20:28N 30°40' E 122°49'0 0.1
2018-Feb-14 19:46N 30°40' E 122°49'0 0.1
2018-Feb-14 19:28N 30°40' E 122°49'0 0.0
2018-Feb-14 18:58N 30°40' E 122°49'0 0.0
2018-Feb-14 18:28N 30°40' E 122°49'0 0.1
2018-Feb-14 17:58N 30°40' E 122°49'0 0.0
2018-Feb-14 16:52N 30°40' E 122°49'0 0.0
2018-Feb-14 16:28N 30°40' E 122°49'0 0.1
2018-Feb-14 15:58N 30°40' E 122°49'0 0.0
2018-Feb-14 00:52N 30°40' E 122°49'4 0.1
2018-Feb-12 00:00N 30°36' E 122°48'   290 / 181025.0 5.4 9.0 2.6

Dump ship's entire track history